This is the latest recevied weather packets stored in our database for station/object KD9DOE. If no packets are shown the sender has not sent any weather packets the latest 10 day(s).
| Time | Temp. | Humidity | Pressure | Rain* | Wind** | Luminosity | Snow |
|---|---|---|---|---|---|---|---|
| 1777932178 | 26.11° C | 26% | 995.8 hPa | 0 mm | - | 122 W/m² | - |
| 1777931876 | 26.11° C | 26% | 996 hPa | 0 mm | - | 97 W/m² | - |
| 1777931572 | 26.67° C | 26% | 996 hPa | 0 mm | - | 108 W/m² | - |
| 1777931268 | 26.67° C | 25% | 995.9 hPa | 0 mm | - | 190 W/m² | - |
| 1777930964 | 26.67° C | 26% | 996.2 hPa | 0 mm | - | 176 W/m² | - |
| 1777930661 | 26.11° C | 27% | 996.1 hPa | 0 mm | - | 320 W/m² | - |
| 1777930357 | 26.11° C | 26% | 996.1 hPa | 0 mm | - | 179 W/m² | - |
| 1777930055 | 26.11° C | 27% | 996.2 hPa | 0 mm | - | 141 W/m² | - |
| 1777929751 | 26.11° C | 25% | 996.1 hPa | 0 mm | - | 406 W/m² | - |
| 1777929449 | 26.11° C | 25% | 996.2 hPa | 0 mm | - | 154 W/m² | - |
| 1777929145 | 26.11° C | 25% | 996.3 hPa | 0 mm | - | 143 W/m² | - |
| 1777928843 | 26.11° C | 26% | 996.4 hPa | 0 mm | - | 151 W/m² | - |
| 1777928539 | 25.56° C | 27% | 996.3 hPa | 0 mm | - | 229 W/m² | - |
| 1777928236 | 26.11° C | 26% | 996.4 hPa | 0 mm | - | 116 W/m² | - |
| 1777927934 | 26.11° C | 26% | 996.5 hPa | 0 mm | - | 156 W/m² | - |
| 1777927632 | 26.67° C | 25% | 996.3 hPa | 0 mm | - | 327 W/m² | - |
| 1777927330 | 26.67° C | 24% | 996.4 hPa | 0 mm | - | 199 W/m² | - |
| 1777927029 | 26.67° C | 25% | 996.4 hPa | 0 mm | - | 202 W/m² | - |
| 1777926727 | 26.67° C | 25% | 996.4 hPa | 0 mm | - | 245 W/m² | - |
| 1777926426 | 27.22° C | 24% | 996.6 hPa | 0 mm | - | 192 W/m² | - |
| 1777926124 | 27.22° C | 25% | 996.6 hPa | 0 mm | - | 333 W/m² | - |
| 1777925821 | 26.67° C | 26% | 996.5 hPa | 0 mm | - | 631 W/m² | - |
| 1777925518 | 26.67° C | 26% | 996.7 hPa | 0 mm | - | 426 W/m² | - |
| 1777925215 | 26.11° C | 26% | 996.9 hPa | 0 mm | - | 359 W/m² | - |
| 1777924911 | 26.11° C | 26% | 996.8 hPa | 0 mm | - | 528 W/m² | - |
* Rain latest hour (hover to see other rain measurements)
** Current wind speed in m/s (hover to see current wind gust speed)